Peacehaven, United Kingdom
Current Conditions -  °F | °C
As of 2:20 PM on Friday 24 Oct 2014 (Local Time) from EGKA Reporting Station
Drizzle Drizzle  
Wind Chill: 61°   Ceiling: 500
Heat Index: 61°   Visibility: 1.5mi
Dew Point: 59°   Wind: 6mph
Humidity: 94%   Direction: 230°SW
Pressure: 29.91"   Gusts: NA
Location:  50.79°N, 0.02°W
Report Text: EGKA 241320Z 23005KT 2500 -DZ BR SCT002 OVC005 16/15 Q1013
Loading
Personal Weather Stations






























Interactive Weather Map New forecast layout! Learn more

10-Day Weather Forecast

Advertisements
Track Severe Weather on mobile